Time;durP1;ratioP1;P1;durP2;ratioP2;P2;SDS_P1;SDS_P2;PMS_P1;PMS_P2;Temp;Humidity;BMP_temperature;BMP_pressure;BME280_temperature;BME280_humidity;BME280_pressure;Samples;Min_cycle;Max_cycle;Signal;HPM_P1;HPM_P2
2023/08/15 00:01:26;;;;;;;12.23;11.27;;;18.10;88.30;;;;;;5096674;28;20185;-90
2023/08/15 00:03:53;;;;;;;12.73;10.23;;;18.10;88.30;;;;;;5097717;28;20170;-89
2023/08/15 00:06:20;;;;;;;12.48;11.00;;;18.10;88.10;;;;;;5100491;28;20174;-90
2023/08/15 00:08:48;;;;;;;11.80;10.77;;;18.10;88.30;;;;;;5105291;28;20163;-90
2023/08/15 00:11:13;;;;;;;18.25;11.52;;;18.00;88.30;;;;;;5101794;28;20615;-90
2023/08/15 00:13:39;;;;;;;11.57;10.43;;;17.90;88.80;;;;;;5101246;28;20166;-90
2023/08/15 00:16:04;;;;;;;11.95;9.80;;;18.00;89.00;;;;;;5103588;28;20197;-90
2023/08/15 00:18:30;;;;;;;23.00;11.73;;;17.90;89.30;;;;;;5099219;28;20206;-89
2023/08/15 00:20:56;;;;;;;17.65;10.52;;;18.00;89.60;;;;;;5098473;28;20224;-90
2023/08/15 00:23:21;;;;;;;13.38;11.10;;;17.90;89.70;;;;;;5098896;28;20175;-90
2023/08/15 00:25:47;;;;;;;14.70;11.15;;;17.80;90.10;;;;;;5101452;28;20167;-90
2023/08/15 00:28:12;;;;;;;13.95;11.88;;;17.80;90.20;;;;;;5101182;28;20171;-90
2023/08/15 00:30:38;;;;;;;12.80;11.48;;;17.80;90.40;;;;;;5102615;28;20642;-91
2023/08/15 00:33:03;;;;;;;14.32;10.93;;;17.90;90.40;;;;;;5098879;28;20179;-90
2023/08/15 00:35:29;;;;;;;15.93;10.57;;;17.70;90.40;;;;;;5098774;28;20274;-91
2023/08/15 00:37:54;;;;;;;15.25;10.15;;;17.80;90.50;;;;;;5099049;28;20196;-91
2023/08/15 00:40:20;;;;;;;13.07;10.85;;;17.70;90.40;;;;;;5098000;28;20171;-91
2023/08/15 00:42:46;;;;;;;14.35;11.07;;;17.70;90.70;;;;;;5101900;28;20178;-89
2023/08/15 00:45:11;;;;;;;14.20;10.85;;;17.80;90.60;;;;;;5101245;28;20286;-89
2023/08/15 00:47:37;;;;;;;14.27;10.48;;;17.70;90.60;;;;;;5101656;28;20174;-89
2023/08/15 00:50:06;;;;;;;16.30;11.23;;;17.80;90.50;;;;;;5101056;28;20210;-89
2023/08/15 00:52:32;;;;;;;12.05;10.00;;;17.70;90.40;;;;;;5101598;28;20232;-89
2023/08/15 00:54:58;;;;;;;14.10;10.50;;;17.70;90.30;;;;;;5100496;28;20218;-89
2023/08/15 00:57:24;;;;;;;14.30;12.82;;;17.70;90.30;;;;;;5100459;28;20190;-89
2023/08/15 00:59:50;;;;;;;24.75;20.58;;;17.70;90.30;;;;;;5100939;28;20196;-89
2023/08/15 01:02:15;;;;;;;25.75;23.85;;;17.70;90.20;;;;;;5101829;28;20167;-89
2023/08/15 01:04:42;;;;;;;16.33;12.98;;;17.70;90.20;;;;;;5101107;28;20226;-89
2023/08/15 01:07:09;;;;;;;17.20;13.90;;;17.60;90.20;;;;;;5100731;28;20175;-89
2023/08/15 01:09:35;;;;;;;15.63;12.68;;;17.50;90.10;;;;;;5100225;28;20177;-89
2023/08/15 01:12:38;;;;;;;19.85;12.98;;;17.50;90.30;;;;;;5100724;28;20624;-89
2023/08/15 01:15:18;;;;;;;17.05;12.30;;;17.40;90.30;;;;;;5091111;28;20216;-89
2023/08/15 01:18:07;;;;;;;17.50;12.35;;;17.50;90.30;;;;;;5101005;28;20695;-89
2023/08/15 01:20:36;;;;;;;18.77;12.10;;;17.40;90.20;;;;;;5100019;28;20194;-90
2023/08/15 01:23:06;;;;;;;18.45;12.50;;;17.40;90.20;;;;;;5101004;28;20170;-89
2023/08/15 01:25:32;;;;;;;13.65;11.60;;;17.50;90.20;;;;;;5100221;28;20195;-89
2023/08/15 01:28:01;;;;;;;18.00;11.27;;;17.50;90.20;;;;;;5099700;28;20174;-89
2023/08/15 01:30:27;;;;;;;12.68;11.68;;;17.50;90.20;;;;;;5100913;28;20179;-89
2023/08/15 01:33:06;;;;;;;20.33;13.00;;;17.50;90.20;;;;;;5100001;28;20179;-89
2023/08/15 01:35:41;;;;;;;14.02;12.50;;;17.50;90.20;;;;;;5099408;28;20206;-89
2023/08/15 01:38:13;;;;;;;21.60;14.05;;;17.40;90.20;;;;;;5100198;28;20173;-89
2023/08/15 01:40:41;;;;;;;14.30;12.60;;;17.40;90.20;;;;;;5099423;28;20537;-89
2023/08/15 01:43:10;;;;;;;16.33;12.25;;;17.40;90.10;;;;;;5099611;28;20174;-89
2023/08/15 01:45:36;;;;;;;13.07;11.75;;;17.40;90.10;;;;;;5101165;28;20619;-89
2023/08/15 01:48:01;;;;;;;12.75;11.23;;;17.40;90.00;;;;;;5101649;28;20182;-89
2023/08/15 01:50:27;;;;;;;21.10;12.52;;;17.40;90.00;;;;;;5101632;28;20179;-89
2023/08/15 01:52:53;;;;;;;16.60;14.27;;;17.40;89.90;;;;;;5101238;28;20225;-89
2023/08/15 01:55:18;;;;;;;18.08;14.35;;;17.30;89.90;;;;;;5098966;28;20219;-89
2023/08/15 01:57:44;;;;;;;17.13;15.48;;;17.30;90.00;;;;;;5099591;28;20179;-89
2023/08/15 02:00:10;;;;;;;20.13;14.55;;;17.20;90.20;;;;;;5100800;28;20665;-89
2023/08/15 02:02:35;;;;;;;17.38;14.30;;;17.20;90.30;;;;;;5099490;28;20182;-89
2023/08/15 02:05:02;;;;;;;15.20;13.77;;;17.20;90.40;;;;;;5099324;28;20191;-89
2023/08/15 02:07:27;;;;;;;16.77;13.40;;;17.20;90.40;;;;;;5099139;28;20238;-89
2023/08/15 02:09:53;;;;;;;15.10;13.50;;;17.20;90.40;;;;;;5098364;28;20221;-89
2023/08/15 02:12:19;;;;;;;14.77;12.93;;;17.20;90.40;;;;;;5099517;28;20232;-89
2023/08/15 02:14:44;;;;;;;14.70;12.60;;;17.30;90.40;;;;;;5099433;28;20620;-89
2023/08/15 02:17:10;;;;;;;15.13;12.15;;;17.20;90.30;;;;;;5098468;28;20182;-89
2023/08/15 02:19:35;;;;;;;13.07;11.70;;;17.30;90.30;;;;;;5100343;28;20181;-90
2023/08/15 02:22:01;;;;;;;16.55;12.02;;;17.20;90.30;;;;;;5100721;28;20182;-88
2023/08/15 02:24:26;;;;;;;20.50;18.67;;;17.20;90.30;;;;;;5098922;28;20243;-89
2023/08/15 02:26:52;;;;;;;20.95;18.80;;;17.30;90.30;;;;;;5099003;28;20218;-89
2023/08/15 02:29:17;;;;;;;24.52;22.00;;;17.30;90.30;;;;;;5101219;28;20178;-89
2023/08/15 02:31:43;;;;;;;16.17;12.60;;;17.30;90.40;;;;;;5098819;28;20178;-89
2023/08/15 02:34:09;;;;;;;17.88;14.02;;;17.30;90.50;;;;;;5098475;28;20692;-89
2023/08/15 02:36:34;;;;;;;19.20;14.70;;;17.30;90.50;;;;;;5099230;28;20178;-89
2023/08/15 02:39:00;;;;;;;16.98;15.30;;;17.40;90.50;;;;;;5099388;28;20194;-89
2023/08/15 02:41:26;;;;;;;17.63;14.88;;;17.40;90.60;;;;;;5099515;28;20588;-89
2023/08/15 02:43:51;;;;;;;24.55;15.23;;;17.30;90.60;;;;;;5100565;28;20253;-88
2023/08/15 02:46:17;;;;;;;18.00;14.27;;;17.20;90.70;;;;;;5099369;28;20171;-89
2023/08/15 02:48:42;;;;;;;16.73;15.07;;;17.20;90.70;;;;;;5101169;28;20178;-89
2023/08/15 02:51:08;;;;;;;15.75;13.77;;;17.20;90.70;;;;;;5098851;28;20193;-89
2023/08/15 02:53:34;;;;;;;14.88;12.85;;;17.20;90.70;;;;;;5098500;28;20219;-89
2023/08/15 02:56:00;;;;;;;16.38;13.23;;;17.20;90.70;;;;;;5098290;28;20217;-89
2023/08/15 02:58:26;;;;;;;14.05;12.52;;;17.20;90.70;;;;;;5099357;28;20171;-89
2023/08/15 03:00:51;;;;;;;17.33;12.27;;;17.20;90.70;;;;;;5098838;28;20171;-89
2023/08/15 03:03:17;;;;;;;15.05;12.38;;;17.20;90.70;;;;;;5098492;28;20166;-89
2023/08/15 03:05:42;;;;;;;15.40;13.90;;;17.20;90.70;;;;;;5099013;28;20191;-89
2023/08/15 03:08:08;;;;;;;13.88;12.45;;;17.20;90.70;;;;;;5097960;28;20185;-89
2023/08/15 03:10:35;;;;;;;16.25;12.40;;;17.20;90.70;;;;;;5097293;28;20235;-89
2023/08/15 03:13:00;;;;;;;15.10;13.63;;;17.20;90.70;;;;;;5100474;28;20163;-89
2023/08/15 03:15:26;;;;;;;17.23;14.10;;;17.20;90.80;;;;;;5098062;28;20214;-89
2023/08/15 03:17:51;;;;;;;18.17;14.48;;;17.20;90.90;;;;;;5099459;28;20174;-89
2023/08/15 03:20:17;;;;;;;16.33;14.57;;;17.20;90.90;;;;;;5097955;28;20201;-89
2023/08/15 03:22:43;;;;;;;15.40;13.75;;;17.30;90.90;;;;;;5097720;28;20664;-89
2023/08/15 03:25:09;;;;;;;16.15;13.95;;;17.30;90.90;;;;;;5097304;28;20803;-89
2023/08/15 03:27:35;;;;;;;16.10;14.13;;;17.30;90.90;;;;;;5097831;28;20185;-89
2023/08/15 03:30:00;;;;;;;23.60;14.13;;;17.40;91.30;;;;;;5099106;28;20198;-89
2023/08/15 03:32:26;;;;;;;14.88;13.35;;;17.50;91.50;;;;;;5098540;28;20537;-89
2023/08/15 03:34:52;;;;;;;15.35;13.25;;;17.50;91.60;;;;;;5097062;28;20237;-89
2023/08/15 03:37:18;;;;;;;15.13;13.40;;;17.50;91.60;;;;;;5097822;28;20257;-89
2023/08/15 03:39:44;;;;;;;14.77;13.50;;;17.50;91.60;;;;;;5097581;28;20174;-89
2023/08/15 03:42:09;;;;;;;15.18;13.77;;;17.50;91.60;;;;;;5099101;28;20174;-89
2023/08/15 03:44:34;;;;;;;16.85;13.43;;;17.50;91.60;;;;;;5097216;28;20739;-89
2023/08/15 03:47:00;;;;;;;19.20;13.35;;;17.60;91.60;;;;;;5097513;28;20200;-89
2023/08/15 03:49:26;;;;;;;16.02;13.25;;;17.60;91.60;;;;;;5097634;28;20174;-89
2023/08/15 03:51:51;;;;;;;14.18;12.73;;;17.70;91.80;;;;;;5097160;28;20177;-89
2023/08/15 03:54:17;;;;;;;22.05;13.25;;;17.90;92.10;;;;;;5096705;28;20304;-89
2023/08/15 03:56:42;;;;;;;15.85;13.25;;;18.00;92.40;;;;;;5096895;28;20316;-89
2023/08/15 03:59:08;;;;;;;18.27;12.27;;;18.00;92.40;;;;;;5096849;28;20230;-89
2023/08/15 04:01:34;;;;;;;14.05;12.68;;;17.90;92.40;;;;;;5096334;28;20266;-89
2023/08/15 04:03:59;;;;;;;14.63;12.02;;;17.80;92.50;;;;;;5096846;28;20247;-88
2023/08/15 04:06:25;;;;;;;14.45;11.90;;;17.80;92.50;;;;;;5096282;28;20194;-89
2023/08/15 04:08:50;;;;;;;12.43;11.05;;;17.70;92.50;;;;;;5098709;28;20183;-89
2023/08/15 04:11:16;;;;;;;15.65;13.57;;;17.80;92.50;;;;;;5096713;28;20167;-89
2023/08/15 04:13:41;;;;;;;12.65;11.48;;;17.80;92.60;;;;;;5098223;28;20171;-89
2023/08/15 04:16:07;;;;;;;18.23;12.38;;;17.80;92.70;;;;;;5099388;28;20292;-89
2023/08/15 04:18:35;;;;;;;13.40;11.65;;;17.70;92.60;;;;;;5102149;28;20171;-89
2023/08/15 04:21:00;;;;;;;13.13;11.88;;;17.80;92.80;;;;;;5102081;28;20252;-89
2023/08/15 04:23:26;;;;;;;14.30;12.07;;;17.80;92.70;;;;;;5101004;28;20269;-89
2023/08/15 04:25:51;;;;;;;12.80;11.65;;;17.80;92.70;;;;;;5100800;28;20201;-89
2023/08/15 04:28:17;;;;;;;12.32;11.23;;;17.80;92.80;;;;;;5101113;28;20186;-89
2023/08/15 04:30:43;;;;;;;14.82;13.48;;;17.80;92.70;;;;;;5102307;28;20175;-89
2023/08/15 04:33:08;;;;;;;15.40;12.55;;;17.80;92.70;;;;;;5102309;28;20174;-89
2023/08/15 04:35:34;;;;;;;17.58;14.88;;;17.90;92.90;;;;;;5100259;28;20547;-89
2023/08/15 04:38:00;;;;;;;20.58;18.20;;;18.00;93.00;;;;;;5102666;28;20167;-89
2023/08/15 04:40:31;;;;;;;21.92;17.88;;;17.90;93.00;;;;;;5100709;28;20521;-89
2023/08/15 04:42:57;;;;;;;14.73;13.35;;;17.90;93.00;;;;;;5100345;28;20170;-89
2023/08/15 04:45:22;;;;;;;21.45;13.63;;;17.90;93.10;;;;;;5101519;28;20191;-89
2023/08/15 04:47:48;;;;;;;18.30;16.75;;;18.00;93.30;;;;;;5099155;28;20186;-89
2023/08/15 04:50:13;;;;;;;22.92;18.27;;;18.00;93.40;;;;;;5099546;28;20197;-89
2023/08/15 04:52:39;;;;;;;20.52;18.40;;;18.00;93.40;;;;;;5100019;28;20175;-89
2023/08/15 04:55:06;;;;;;;16.60;14.18;;;18.10;93.50;;;;;;5099648;28;20214;-89
2023/08/15 04:57:32;;;;;;;16.10;14.45;;;18.20;93.70;;;;;;5099830;28;20171;-89
2023/08/15 04:59:57;;;;;;;15.75;14.05;;;18.20;93.70;;;;;;5100233;28;20715;-89
2023/08/15 05:02:23;;;;;;;16.08;14.00;;;18.20;93.70;;;;;;5101068;28;20213;-90
2023/08/15 05:04:48;;;;;;;18.35;13.48;;;18.30;93.80;;;;;;5099857;28;20209;-89
2023/08/15 05:07:14;;;;;;;15.90;14.38;;;18.40;93.90;;;;;;5099775;28;20181;-89
2023/08/15 05:09:40;;;;;;;21.17;14.52;;;18.60;94.00;;;;;;5100391;28;20642;-89
2023/08/15 05:12:05;;;;;;;17.05;14.20;;;18.70;94.00;;;;;;5099741;28;20259;-90
2023/08/15 05:14:31;;;;;;;21.25;14.70;;;18.80;94.10;;;;;;5099869;28;20202;-89
2023/08/15 05:16:56;;;;;;;19.48;14.40;;;18.80;94.10;;;;;;5099230;28;20175;-89
2023/08/15 05:19:22;;;;;;;18.38;13.98;;;18.90;94.10;;;;;;5099475;28;20265;-89
2023/08/15 05:21:48;;;;;;;21.80;14.90;;;19.00;94.10;;;;;;5100281;28;20242;-90
2023/08/15 05:24:13;;;;;;;15.18;13.57;;;19.10;94.10;;;;;;5098943;28;20694;-90
2023/08/15 05:26:39;;;;;;;17.23;14.15;;;19.20;94.10;;;;;;5098806;28;20599;-90
2023/08/15 05:29:04;;;;;;;20.70;13.85;;;19.20;94.10;;;;;;5097981;28;20201;-90
2023/08/15 05:31:30;;;;;;;16.60;14.27;;;19.20;94.20;;;;;;5100229;28;20183;-90
2023/08/15 05:33:55;;;;;;;16.90;14.27;;;19.30;94.20;;;;;;5099295;28;20185;-89
2023/08/15 05:36:21;;;;;;;19.48;15.02;;;19.40;94.20;;;;;;5098868;28;20186;-90
2023/08/15 05:38:46;;;;;;;16.25;14.35;;;19.40;94.20;;;;;;5099144;28;20172;-89
2023/08/15 05:41:12;;;;;;;16.13;14.48;;;19.30;94.20;;;;;;5099226;28;20244;-90
2023/08/15 05:43:38;;;;;;;15.80;13.98;;;19.40;94.20;;;;;;5099352;28;20716;-89
2023/08/15 05:46:04;;;;;;;16.58;14.90;;;19.50;94.20;;;;;;5098950;28;20252;-89
2023/08/15 05:48:30;;;;;;;18.70;15.05;;;19.50;94.20;;;;;;5099602;28;20178;-89
2023/08/15 05:50:56;;;;;;;16.25;14.75;;;19.50;94.10;;;;;;5099060;28;20173;-89
2023/08/15 05:53:21;;;;;;;16.65;14.95;;;19.50;94.10;;;;;;5099056;28;20170;-89
2023/08/15 05:55:47;;;;;;;15.65;14.27;;;19.60;94.10;;;;;;5097641;28;20211;-90
2023/08/15 05:58:12;;;;;;;17.38;14.45;;;19.60;94.10;;;;;;5098593;28;20542;-89
2023/08/15 06:00:38;;;;;;;18.73;14.82;;;19.60;94.10;;;;;;5098645;28;20695;-89
2023/08/15 06:03:05;;;;;;;18.33;16.00;;;19.60;94.10;;;;;;5097925;28;20208;-89
2023/08/15 06:05:31;;;;;;;17.48;15.00;;;19.60;94.10;;;;;;5098126;28;20248;-89
2023/08/15 06:07:56;;;;;;;20.50;14.90;;;19.70;94.10;;;;;;5098336;28;20542;-90
2023/08/15 06:10:22;;;;;;;21.50;15.50;;;19.70;94.10;;;;;;5098386;28;20190;-89
2023/08/15 06:12:47;;;;;;;24.13;16.08;;;19.80;94.00;;;;;;5098260;28;20175;-90
2023/08/15 06:15:14;;;;;;;17.77;15.95;;;19.80;94.00;;;;;;5097905;28;20208;-89
2023/08/15 06:17:39;;;;;;;18.98;16.48;;;19.90;94.10;;;;;;5098651;28;20206;-89
2023/08/15 06:20:05;;;;;;;23.90;16.25;;;19.90;94.10;;;;;;5099866;28;20175;-89
2023/08/15 06:22:31;;;;;;;24.50;15.85;;;20.00;94.00;;;;;;5098876;28;20181;-90
2023/08/15 06:24:56;;;;;;;20.50;17.17;;;20.10;94.00;;;;;;5098756;28;20195;-91
2023/08/15 06:27:22;;;;;;;26.17;16.58;;;20.20;94.00;;;;;;5096622;28;20171;-90
2023/08/15 06:29:48;;;;;;;18.08;16.30;;;20.30;93.90;;;;;;5096919;28;20650;-90
2023/08/15 06:32:31;;;;;;;17.10;15.57;;;20.50;93.90;;;;;;5098303;28;20620;-90
2023/08/15 06:34:57;;;;;;;18.02;15.63;;;20.70;93.90;;;;;;5098483;28;20198;-90
2023/08/15 06:37:23;;;;;;;22.83;15.65;;;20.80;93.40;;;;;;5096606;28;20178;-90
2023/08/15 06:39:49;;;;;;;22.23;15.48;;;21.00;93.00;;;;;;5096786;28;20175;-90
2023/08/15 06:42:14;;;;;;;16.65;15.05;;;21.10;92.20;;;;;;5098410;28;20162;-90
2023/08/15 06:44:43;;;;;;;16.90;15.10;;;21.20;91.70;;;;;;5098167;28;20251;-90
2023/08/15 06:47:09;;;;;;;19.83;14.68;;;21.30;91.50;;;;;;5097081;28;20181;-90
2023/08/15 06:49:35;;;;;;;16.73;15.02;;;21.50;91.40;;;;;;5098523;28;20170;-89
2023/08/15 06:52:01;;;;;;;18.13;14.38;;;21.40;90.90;;;;;;5097365;28;20555;-90
2023/08/15 06:54:26;;;;;;;17.98;15.07;;;21.50;90.50;;;;;;5096202;28;20225;-90
2023/08/15 06:56:52;;;;;;;21.92;14.82;;;21.50;90.30;;;;;;5096626;28;20171;-90
2023/08/15 06:59:18;;;;;;;19.50;14.15;;;21.50;90.10;;;;;;5096447;28;20638;-89
2023/08/15 07:01:43;;;;;;;18.30;13.43;;;21.60;90.10;;;;;;5096675;28;20186;-90
2023/08/15 07:04:09;;;;;;;16.70;14.13;;;21.60;90.10;;;;;;5097339;28;20202;-90
2023/08/15 07:06:34;;;;;;;15.52;14.00;;;21.60;90.10;;;;;;5096809;28;20179;-90
2023/08/15 07:09:00;;;;;;;15.32;13.65;;;21.70;90.10;;;;;;5097766;28;20181;-90
2023/08/15 07:11:25;;;;;;;16.63;14.27;;;21.70;90.10;;;;;;5098372;28;20185;-91
2023/08/15 07:13:51;;;;;;;15.40;13.90;;;21.70;89.90;;;;;;5098560;28;20175;-89
2023/08/15 07:16:16;;;;;;;19.20;14.02;;;21.70;89.90;;;;;;5100090;28;20697;-89
2023/08/15 07:18:42;;;;;;;17.63;14.07;;;21.70;89.90;;;;;;5100677;28;20167;-90
2023/08/15 07:21:07;;;;;;;17.67;14.27;;;21.80;89.90;;;;;;5098820;28;20210;-89
2023/08/15 07:23:33;;;;;;;14.73;13.32;;;21.80;89.70;;;;;;5096349;28;20238;-90
2023/08/15 07:25:58;;;;;;;19.52;13.95;;;21.80;89.90;;;;;;5097304;28;20296;-90
2023/08/15 07:28:24;;;;;;;14.95;13.32;;;21.80;90.00;;;;;;5099148;28;20175;-90
2023/08/15 07:30:50;;;;;;;15.35;13.77;;;21.80;89.90;;;;;;5098606;28;20261;-90
2023/08/15 07:33:15;;;;;;;19.00;13.93;;;21.80;89.90;;;;;;5097547;28;20183;-90
2023/08/15 07:35:42;;;;;;;14.43;13.00;;;21.80;89.70;;;;;;5097319;28;20712;-90
2023/08/15 07:38:07;;;;;;;19.13;14.38;;;21.80;89.90;;;;;;5099283;28;20228;-89
2023/08/15 07:40:33;;;;;;;15.63;14.00;;;21.70;89.80;;;;;;5097658;28;20630;-90
2023/08/15 07:42:58;;;;;;;18.80;14.60;;;21.80;89.70;;;;;;5095953;28;20202;-90
2023/08/15 07:45:24;;;;;;;15.55;14.00;;;21.70;89.50;;;;;;5095917;28;20244;-91
2023/08/15 07:47:54;;;;;;;17.40;14.88;;;21.70;89.50;;;;;;5096018;28;20182;-91
2023/08/15 07:50:23;;;;;;;19.77;17.88;;;21.70;89.60;;;;;;5096029;28;20167;-90
2023/08/15 07:52:49;;;;;;;21.98;19.15;;;21.70;89.70;;;;;;5098478;28;20167;-90
2023/08/15 07:55:15;;;;;;;20.58;18.55;;;21.70;89.90;;;;;;5098211;28;20221;-90
2023/08/15 07:57:43;;;;;;;16.33;14.75;;;21.80;90.00;;;;;;5096448;28;20174;-90
2023/08/15 08:00:10;;;;;;;15.85;14.25;;;21.70;89.90;;;;;;5097308;28;20657;-90
2023/08/15 08:02:36;;;;;;;17.13;15.43;;;21.70;89.80;;;;;;5098238;28;20163;-90
2023/08/15 08:05:02;;;;;;;26.13;19.40;;;21.70;89.80;;;;;;5098120;28;20277;-90
2023/08/15 08:07:28;;;;;;;22.98;20.50;;;21.70;90.00;;;;;;5098074;28;20174;-90
2023/08/15 08:09:54;;;;;;;15.35;13.70;;;21.70;90.20;;;;;;5097637;28;20596;-90
2023/08/15 08:12:19;;;;;;;15.68;14.27;;;21.70;90.30;;;;;;5096527;28;20170;-90
2023/08/15 08:14:45;;;;;;;21.92;18.33;;;21.70;90.50;;;;;;5097679;28;20198;-90
2023/08/15 08:17:10;;;;;;;21.20;19.10;;;21.60;90.70;;;;;;5096499;28;20174;-90
2023/08/15 08:19:36;;;;;;;22.33;20.40;;;21.60;90.90;;;;;;5095724;28;20300;-90
2023/08/15 08:22:01;;;;;;;15.90;14.35;;;21.60;91.00;;;;;;5095252;28;20182;-90
2023/08/15 08:24:27;;;;;;;16.45;14.20;;;21.40;91.30;;;;;;5094567;28;20230;-89
2023/08/15 08:26:52;;;;;;;19.95;18.10;;;21.40;91.50;;;;;;5096878;28;20189;-89
2023/08/15 08:29:18;;;;;;;22.48;19.23;;;21.40;91.70;;;;;;5096102;28;20174;-89
2023/08/15 08:31:43;;;;;;;19.25;14.85;;;21.30;92.00;;;;;;5095224;28;20178;-91
2023/08/15 08:34:13;;;;;;;15.65;14.15;;;21.20;92.00;;;;;;5095958;28;20513;-90
2023/08/15 08:36:40;;;;;;;17.55;15.68;;;21.30;92.10;;;;;;5096863;28;20238;-90
2023/08/15 08:39:07;;;;;;;16.83;15.18;;;21.20;92.10;;;;;;5096581;28;20194;-89
2023/08/15 08:41:35;;;;;;;16.65;14.90;;;21.30;92.20;;;;;;5101895;28;20167;-88
2023/08/15 08:44:02;;;;;;;17.35;15.25;;;21.30;92.20;;;;;;5099276;28;20681;-88
2023/08/15 08:46:28;;;;;;;17.23;15.52;;;21.30;92.10;;;;;;5100697;28;20167;-89
2023/08/15 08:48:59;;;;;;;18.27;15.40;;;21.40;92.20;;;;;;5099457;28;20738;-89
2023/08/15 08:51:26;;;;;;;17.42;15.60;;;21.40;92.30;;;;;;5099444;28;20166;-89
2023/08/15 08:53:52;;;;;;;16.38;14.77;;;21.40;92.20;;;;;;5097388;28;20174;-88
2023/08/15 08:56:18;;;;;;;16.50;14.90;;;21.50;92.20;;;;;;5096226;28;20590;-89
2023/08/15 08:58:58;;;;;;;17.50;14.48;;;21.60;92.20;;;;;;5098169;28;20202;-89
2023/08/15 09:01:26;;;;;;;19.75;16.27;;;21.70;92.30;;;;;;5095942;28;20246;-90
2023/08/15 09:03:52;;;;;;;17.45;15.70;;;21.80;92.30;;;;;;5098095;28;20206;-89
2023/08/15 09:06:18;;;;;;;16.75;15.10;;;21.90;92.20;;;;;;5099402;28;20186;-89
2023/08/15 09:08:43;;;;;;;19.38;14.95;;;22.00;92.10;;;;;;5100603;28;20255;-89
2023/08/15 09:11:09;;;;;;;15.90;14.32;;;21.90;91.50;;;;;;5099062;28;20197;-90
2023/08/15 09:13:34;;;;;;;15.73;14.13;;;22.10;91.40;;;;;;5098403;28;20190;-89
2023/08/15 09:16:03;;;;;;;17.95;15.25;;;22.20;90.50;;;;;;5099561;28;20631;-90
2023/08/15 09:18:33;;;;;;;16.10;14.43;;;22.40;90.80;;;;;;5099971;28;20234;-89
2023/08/15 09:20:58;;;;;;;15.20;13.70;;;22.60;89.70;;;;;;5099305;28;20171;-89
2023/08/15 09:23:24;;;;;;;15.23;13.52;;;22.60;88.60;;;;;;5099718;28;20175;-90
2023/08/15 09:25:54;;;;;;;15.90;14.40;;;22.70;88.70;;;;;;5099426;28;20223;-90
2023/08/15 09:28:20;;;;;;;15.68;14.15;;;22.90;87.70;;;;;;5099911;28;20186;-90
2023/08/15 09:30:53;;;;;;;14.45;13.20;;;23.10;87.30;;;;;;5099562;28;20183;-89
2023/08/15 09:33:19;;;;;;;15.57;13.00;;;23.20;86.30;;;;;;5099353;28;20551;-90
2023/08/15 09:35:45;;;;;;;14.10;12.80;;;23.30;87.10;;;;;;5099328;28;20270;-90
2023/08/15 09:38:11;;;;;;;17.27;14.38;;;23.50;86.30;;;;;;5099685;28;20171;-90
2023/08/15 09:40:37;;;;;;;14.82;13.32;;;23.40;85.50;;;;;;5101496;28;20224;-90
2023/08/15 09:43:03;;;;;;;16.95;13.50;;;23.30;85.90;;;;;;5101774;28;20171;-90
2023/08/15 09:45:29;;;;;;;16.35;12.30;;;23.20;85.60;;;;;;5100925;28;20573;-89
2023/08/15 09:47:55;;;;;;;16.35;13.93;;;23.20;86.20;;;;;;5101037;28;20205;-89
2023/08/15 09:50:21;;;;;;;14.55;13.10;;;23.10;85.90;;;;;;5101407;28;20607;-90
2023/08/15 09:52:47;;;;;;;15.05;13.65;;;23.10;86.10;;;;;;5100268;28;20205;-90
2023/08/15 09:55:14;;;;;;;14.70;13.20;;;23.10;86.40;;;;;;5099297;28;20579;-90
2023/08/15 09:57:42;;;;;;;16.83;13.93;;;23.20;86.20;;;;;;5100606;28;20238;-89
2023/08/15 10:00:11;;;;;;;14.88;13.60;;;23.20;86.00;;;;;;5099778;28;20167;-89
2023/08/15 10:02:48;;;;;;;16.90;14.70;;;23.30;86.10;;;;;;5100604;28;20265;-90
2023/08/15 10:05:18;;;;;;;16.95;15.40;;;23.30;85.30;;;;;;5100277;28;20197;-90
2023/08/15 10:07:45;;;;;;;16.45;14.93;;;23.40;85.20;;;;;;5098831;28;20167;-90
2023/08/15 10:10:13;;;;;;;15.63;14.32;;;23.70;85.20;;;;;;5098513;28;20234;-90
2023/08/15 10:12:41;;;;;;;19.13;15.57;;;23.90;85.30;;;;;;5099618;28;20261;-90
2023/08/15 10:15:10;;;;;;;16.25;14.73;;;23.90;84.60;;;;;;5100554;28;20230;-90
2023/08/15 10:17:36;;;;;;;16.88;15.43;;;24.10;84.70;;;;;;5099939;28;20540;-90
2023/08/15 10:20:10;;;;;;;17.38;15.98;;;24.00;83.20;;;;;;5100309;28;20202;-90
2023/08/15 10:22:38;;;;;;;18.60;16.52;;;24.10;83.50;;;;;;5101506;28;20147;-89
2023/08/15 10:25:23;;;;;;;16.15;14.68;;;23.90;83.70;;;;;;5096786;28;20611;-90
2023/08/15 10:27:52;;;;;;;18.67;15.93;;;23.90;84.00;;;;;;5098139;28;20170;-90
2023/08/15 10:30:36;;;;;;;17.13;15.30;;;23.90;84.00;;;;;;5101909;28;20170;-90
2023/08/15 10:33:12;;;;;;;16.85;15.10;;;24.40;83.50;;;;;;5099418;28;20211;-89
2023/08/15 10:35:54;;;;;;;15.98;14.60;;;24.40;82.70;;;;;;5098783;28;20209;-90
2023/08/15 10:38:30;;;;;;;20.15;15.30;;;24.20;83.10;;;;;;5098143;28;20768;-89
2023/08/15 10:41:02;;;;;;;32.30;21.90;;;24.00;85.20;;;;;;5096175;28;20182;-89
2023/08/15 10:43:28;;;;;;;27.15;24.40;;;23.40;87.10;;;;;;5097045;28;20170;-89
2023/08/15 10:45:57;;;;;;;34.50;25.33;;;23.10;87.90;;;;;;5093980;28;20545;-91
2023/08/15 10:48:51;;;;;;;29.55;26.63;;;22.90;88.40;;;;;;5095243;28;20178;-91
2023/08/15 10:51:17;;;;;;;27.70;24.90;;;23.20;90.00;;;;;;5095508;28;20171;-91
2023/08/15 10:53:43;;;;;;;29.75;23.77;;;23.70;90.20;;;;;;5095183;28;20177;-91
2023/08/15 10:56:09;;;;;;;25.42;23.05;;;23.90;89.30;;;;;;5095081;28;20198;-92
2023/08/15 10:58:36;;;;;;;26.10;22.80;;;24.00;88.40;;;;;;5095545;28;20175;-91
2023/08/15 11:01:03;;;;;;;31.80;28.50;;;24.20;87.50;;;;;;5095417;28;20167;-92
2023/08/15 11:03:28;;;;;;;34.83;31.65;;;24.20;87.40;;;;;;5094109;28;20177;-91
2023/08/15 11:06:08;;;;;;;27.17;24.48;;;23.80;85.00;;;;;;5094591;28;20195;-90
2023/08/15 11:08:40;;;;;;;31.73;23.13;;;23.60;85.20;;;;;;5097455;28;20171;-89
2023/08/15 11:11:05;;;;;;;28.13;22.70;;;24.00;86.30;;;;;;5099027;28;20158;-90
2023/08/15 11:13:37;;;;;;;26.50;23.90;;;24.20;86.30;;;;;;5098393;28;20198;-89
2023/08/15 11:16:03;;;;;;;30.00;24.55;;;24.00;85.20;;;;;;5097260;28;20260;-90
2023/08/15 11:18:28;;;;;;;28.20;24.27;;;23.80;84.30;;;;;;5094735;28;20170;-90
2023/08/15 11:20:54;;;;;;;34.17;27.27;;;23.60;86.30;;;;;;5092980;28;20533;-90
2023/08/15 11:23:21;;;;;;;30.17;27.15;;;23.50;86.70;;;;;;5094758;28;20171;-91
2023/08/15 11:25:46;;;;;;;31.77;28.15;;;23.40;87.20;;;;;;5094634;28;20759;-91
2023/08/15 11:28:12;;;;;;;37.78;27.92;;;23.20;87.10;;;;;;5094760;28;20186;-90
2023/08/15 11:30:37;;;;;;;33.42;30.05;;;23.10;87.10;;;;;;5095127;28;20186;-90
2023/08/15 11:33:03;;;;;;;33.85;30.25;;;23.20;86.50;;;;;;5094532;28;20177;-90
2023/08/15 11:35:29;;;;;;;32.15;28.80;;;23.40;87.00;;;;;;5093885;28;20202;-90
2023/08/15 11:37:54;;;;;;;33.25;29.77;;;23.40;85.90;;;;;;5094643;28;20169;-91
2023/08/15 11:40:20;;;;;;;31.92;28.77;;;23.40;86.10;;;;;;5095125;28;20170;-90
2023/08/15 11:42:46;;;;;;;35.40;29.08;;;23.60;85.80;;;;;;5094693;28;20530;-91
2023/08/15 11:45:21;;;;;;;33.78;30.05;;;23.70;86.20;;;;;;5094623;28;20202;-90
2023/08/15 11:48:03;;;;;;;31.83;28.52;;;24.00;85.20;;;;;;5094953;28;20162;-90
2023/08/15 11:50:31;;;;;;;31.20;28.25;;;24.00;84.20;;;;;;5095222;28;20174;-90
2023/08/15 11:52:56;;;;;;;25.35;22.95;;;24.20;84.70;;;;;;5095093;28;20576;-90
2023/08/15 11:55:23;;;;;;;23.58;21.45;;;24.50;83.00;;;;;;5095248;28;20297;-90
2023/08/15 11:57:50;;;;;;;21.30;19.17;;;24.70;81.40;;;;;;5093843;28;20192;-90
2023/08/15 12:00:16;;;;;;;24.90;22.45;;;25.00;80.60;;;;;;5095648;28;20644;-90
2023/08/15 12:02:43;;;;;;;25.20;22.75;;;25.00;80.50;;;;;;5095290;28;20220;-90
2023/08/15 12:05:11;;;;;;;22.13;20.08;;;24.70;79.80;;;;;;5095360;28;20205;-90
2023/08/15 12:07:37;;;;;;;21.20;19.30;;;24.80;80.20;;;;;;5095019;28;20175;-90
2023/08/15 12:10:04;;;;;;;21.65;19.67;;;24.70;78.30;;;;;;5095000;28;20182;-90
2023/08/15 12:12:37;;;;;;;19.63;17.83;;;24.70;76.70;;;;;;5094669;28;20227;-90
2023/08/15 12:15:03;;;;;;;19.85;18.25;;;25.20;77.90;;;;;;5095477;28;20211;-90
2023/08/15 12:17:28;;;;;;;21.60;19.42;;;25.40;74.10;;;;;;5094847;28;20166;-90
2023/08/15 12:19:54;;;;;;;18.52;17.08;;;25.40;73.70;;;;;;5095868;28;20174;-90
2023/08/15 12:22:19;;;;;;;19.25;17.75;;;25.70;71.60;;;;;;5096506;28;20167;-89
2023/08/15 12:24:45;;;;;;;21.25;19.05;;;25.70;73.70;;;;;;5097631;28;20195;-90
2023/08/15 12:27:10;;;;;;;19.77;18.05;;;25.70;75.20;;;;;;5094868;28;20642;-90